createdAt,value
2022-10-04T00:05:05.534Z,5.43
2022-10-04T00:10:36.128Z,6.32
2022-10-04T00:15:38.964Z,5.28
2022-10-04T00:20:49.160Z,6.15
2022-10-04T00:31:14.440Z,6.45
2022-10-04T00:36:24.608Z,5.13
2022-10-04T00:41:28.411Z,5.10
2022-10-04T00:46:31.996Z,5.40
2022-10-04T00:52:01.733Z,5.32
2022-10-04T00:57:11.376Z,5.30
2022-10-04T01:02:15.494Z,5.75
2022-10-04T01:07:22.522Z,5.63
2022-10-04T01:12:50.276Z,5.47
2022-10-04T01:18:20.905Z,5.05
2022-10-04T01:23:37.967Z,4.97
2022-10-04T01:28:39.329Z,5.60
2022-10-04T01:33:40.724Z,5.57
2022-10-04T01:38:42.239Z,4.78
2022-10-04T01:43:50.323Z,5.97
2022-10-04T01:48:54.038Z,5.22
2022-10-04T01:54:09.712Z,5.45
2022-10-04T01:59:23.976Z,6.10
2022-10-04T02:04:33.224Z,5.75
2022-10-04T02:09:39.805Z,5.60
2022-10-04T02:14:47.385Z,5.07
2022-10-04T02:19:50.439Z,5.65
2022-10-04T02:24:54.802Z,5.18
2022-10-04T02:30:01.190Z,4.95
2022-10-04T02:35:03.904Z,5.85
2022-10-04T02:40:12.586Z,5.45
2022-10-04T02:45:31.623Z,4.88
2022-10-04T02:50:55.393Z,5.07
2022-10-04T02:55:58.373Z,5.60
2022-10-04T03:01:00.849Z,5.63
2022-10-04T03:06:07.212Z,6.10
2022-10-04T03:11:09.975Z,5.97
2022-10-04T03:16:11.538Z,6.15
2022-10-04T03:21:16.009Z,6.03
2022-10-04T03:26:30.618Z,5.63
2022-10-04T03:31:34.634Z,6.20
2022-10-04T03:36:36.130Z,5.75
2022-10-04T03:41:42.237Z,6.13
2022-10-04T03:46:45.332Z,6.20
2022-10-04T03:51:50.774Z,5.93
2022-10-04T03:56:52.456Z,6.00
2022-10-04T04:02:05.719Z,6.43
2022-10-04T04:07:13.024Z,6.30
2022-10-04T04:12:19.912Z,6.45
2022-10-04T04:17:27.346Z,6.28
2022-10-04T04:22:30.740Z,7.10
2022-10-04T04:27:37.006Z,6.65
2022-10-04T04:32:42.060Z,6.18
2022-10-04T04:37:43.456Z,5.53
2022-10-04T04:42:45.855Z,6.35
2022-10-04T04:47:53.183Z,6.18
2022-10-04T04:53:06.927Z,5.82
2022-10-04T04:58:12.828Z,6.32
2022-10-04T05:03:18.498Z,5.68
2022-10-04T05:08:23.293Z,5.63
2022-10-04T05:13:38.740Z,6.03
2022-10-04T05:18:40.280Z,5.78
2022-10-04T05:23:41.712Z,5.88
2022-10-04T05:28:43.115Z,5.78
2022-10-04T05:33:50.323Z,6.38
2022-10-04T05:39:41.912Z,5.88
2022-10-04T05:44:50.751Z,5.63
2022-10-04T05:49:57.853Z,5.68
2022-10-04T05:55:25.450Z,6.47
2022-10-04T06:00:42.572Z,6.10
2022-10-04T06:06:01.273Z,5.95
2022-10-04T06:11:11.797Z,6.55
2022-10-04T06:16:48.594Z,5.13
2022-10-04T06:21:49.957Z,5.28
2022-10-04T06:26:59.206Z,6.03
2022-10-04T06:32:22.299Z,5.90
2022-10-04T06:37:45.300Z,6.40
2022-10-04T06:42:49.847Z,6.15
2022-10-04T06:47:57.323Z,6.15
2022-10-04T06:53:22.653Z,6.22
2022-10-04T06:58:56.190Z,7.72
2022-10-04T07:04:00.572Z,8.93
2022-10-04T07:09:04.437Z,8.48
2022-10-04T07:14:15.405Z,8.50
2022-10-04T07:19:19.581Z,7.38
2022-10-04T07:24:49.616Z,8.02
2022-10-04T07:29:56.600Z,6.80
2022-10-04T07:35:04.222Z,6.63
2022-10-04T07:40:28.865Z,11.95
2022-10-04T07:45:33.975Z,8.48
2022-10-04T07:50:41.241Z,6.95
2022-10-04T07:56:00.719Z,7.55
2022-10-04T08:01:26.278Z,5.77
2022-10-04T08:06:44.467Z,6.20
2022-10-04T08:11:54.394Z,6.68
2022-10-04T08:17:15.198Z,7.53
2022-10-04T08:22:37.722Z,7.90
2022-10-04T08:27:53.220Z,7.55
2022-10-04T08:33:04.447Z,8.00
2022-10-04T08:38:22.677Z,8.35
2022-10-04T08:43:58.412Z,8.27
2022-10-04T08:49:44.357Z,7.95
2022-10-04T08:55:10.366Z,8.27
2022-10-04T09:00:18.389Z,6.88
2022-10-04T09:05:58.831Z,6.20
2022-10-04T09:11:18.998Z,5.63
2022-10-04T09:16:44.961Z,5.25
2022-10-04T09:21:46.514Z,4.75
2022-10-04T09:27:06.177Z,4.55
2022-10-04T09:32:21.543Z,4.28
2022-10-04T09:37:28.688Z,5.53
2022-10-04T09:42:51.309Z,5.18
2022-10-04T09:48:20.076Z,4.53
2022-10-04T09:53:40.199Z,4.18
2022-10-04T09:58:52.850Z,4.50
2022-10-04T10:04:10.422Z,4.65
2022-10-04T10:09:23.375Z,4.47
2022-10-04T10:14:54.395Z,4.53
2022-10-04T10:20:14.434Z,5.60
2022-10-04T10:26:02.680Z,6.82
2022-10-04T10:31:32.237Z,4.10
2022-10-04T10:37:07.661Z,4.97
2022-10-04T10:42:24.038Z,5.40
2022-10-04T10:47:52.555Z,4.57
2022-10-04T10:52:53.865Z,4.03
2022-10-04T10:58:10.417Z,3.58
2022-10-04T11:03:41.353Z,3.97
2022-10-04T11:09:04.588Z,4.00
2022-10-04T11:14:08.563Z,3.10
2022-10-04T11:19:34.386Z,3.80
2022-10-04T11:24:54.651Z,3.90
2022-10-04T11:30:16.220Z,3.30
2022-10-04T11:35:38.231Z,3.13
2022-10-04T11:40:49.752Z,3.22
2022-10-04T11:46:12.429Z,3.17
2022-10-04T11:51:32.838Z,3.30
2022-10-04T11:56:59.911Z,2.67
2022-10-04T12:02:30.526Z,2.90
2022-10-04T12:07:38.287Z,3.30
2022-10-04T12:13:04.451Z,2.88
2022-10-04T12:18:30.138Z,3.17
2022-10-04T12:24:02.598Z,3.80
2022-10-04T12:29:19.129Z,3.10
2022-10-04T12:34:44.839Z,2.80
2022-10-04T12:40:21.742Z,2.95
2022-10-04T12:45:30.757Z,3.05
2022-10-04T12:50:44.067Z,3.20
2022-10-04T12:55:59.609Z,3.13
2022-10-04T13:01:45.183Z,3.17
2022-10-04T13:07:10.577Z,3.08
2022-10-04T13:13:07.058Z,3.22
2022-10-04T13:18:42.366Z,3.15
2022-10-04T13:23:46.472Z,2.97
2022-10-04T13:29:14.463Z,3.72
2022-10-04T13:34:36.326Z,2.95
2022-10-04T13:40:02.180Z,3.45
2022-10-04T13:46:08.798Z,3.75
2022-10-04T13:51:19.185Z,2.90
2022-10-04T13:56:58.212Z,2.90
2022-10-04T14:02:26.476Z,2.72
2022-10-04T14:07:33.508Z,2.78
2022-10-04T14:12:37.746Z,3.42
2022-10-04T14:17:54.372Z,3.20
2022-10-04T14:23:17.688Z,3.47
2022-10-04T14:28:37.236Z,3.63
2022-10-04T14:34:15.626Z,3.20
2022-10-04T14:39:53.918Z,3.87
2022-10-04T14:45:17.104Z,3.45
2022-10-04T14:50:38.101Z,3.67
2022-10-04T14:56:02.872Z,4.20
2022-10-04T15:01:26.772Z,3.53
2022-10-04T15:06:47.252Z,3.17
2022-10-04T15:12:27.025Z,2.75
2022-10-04T15:17:32.917Z,2.85
2022-10-04T15:22:50.249Z,2.90
2022-10-04T15:27:56.580Z,2.78
2022-10-04T15:33:25.413Z,2.60
2022-10-04T15:38:56.059Z,3.43
2022-10-04T15:44:09.535Z,2.67
2022-10-04T15:49:37.351Z,3.08
2022-10-04T15:55:01.035Z,2.75
2022-10-04T16:00:11.443Z,2.78
2022-10-04T16:05:34.395Z,3.45
2022-10-04T16:11:20.539Z,2.67
2022-10-04T16:16:35.536Z,2.88
2022-10-04T16:22:15.703Z,3.35
2022-10-04T16:27:33.880Z,2.90
2022-10-04T16:33:04.967Z,2.85
2022-10-04T16:38:12.620Z,2.60
2022-10-04T16:43:16.991Z,3.28
2022-10-04T16:48:24.439Z,2.80
2022-10-04T16:53:44.075Z,3.17
2022-10-04T16:59:12.377Z,5.60
2022-10-04T17:04:38.206Z,6.25
2022-10-04T17:10:04.575Z,4.93
2022-10-04T17:15:05.898Z,4.80
2022-10-04T17:20:22.411Z,4.10
2022-10-04T17:25:59.159Z,4.15
2022-10-04T17:31:14.217Z,5.45
2022-10-04T17:36:28.608Z,5.35
2022-10-04T17:41:35.755Z,5.80
2022-10-04T17:46:54.424Z,6.75
2022-10-04T17:52:01.514Z,8.25
2022-10-04T17:57:02.874Z,10.95
2022-10-04T18:02:11.916Z,11.80
2022-10-04T18:07:47.517Z,4.53
2022-10-04T18:12:55.694Z,4.80
2022-10-04T18:18:14.806Z,3.00
2022-10-04T18:23:27.024Z,3.33
2022-10-04T18:28:28.648Z,3.08
2022-10-04T18:33:47.205Z,3.50
2022-10-04T18:39:13.350Z,3.58
2022-10-04T18:44:17.127Z,3.97
2022-10-04T18:49:24.241Z,3.45
2022-10-04T18:55:13.879Z,4.38
2022-10-04T19:00:15.540Z,4.10
2022-10-04T19:05:26.625Z,4.00
2022-10-04T19:10:44.046Z,4.15
2022-10-04T19:16:11.433Z,4.07
2022-10-04T19:21:47.242Z,4.05
2022-10-04T19:27:01.855Z,3.50
2022-10-04T19:32:44.664Z,4.13
2022-10-04T19:37:55.041Z,3.85
2022-10-04T19:43:25.217Z,3.60
2022-10-04T19:48:28.064Z,3.67
2022-10-04T19:53:38.552Z,2.92
2022-10-04T19:58:47.502Z,3.08
2022-10-04T20:03:49.240Z,3.60
2022-10-04T20:08:59.386Z,3.47
2022-10-04T20:14:03.110Z,3.80
2022-10-04T20:19:35.832Z,3.75
2022-10-04T20:24:37.117Z,3.60
2022-10-04T20:29:38.419Z,3.85
2022-10-04T20:34:39.683Z,4.10
2022-10-04T20:39:41.134Z,4.00
2022-10-04T20:44:46.772Z,4.20
2022-10-04T20:49:48.202Z,3.90
2022-10-04T20:54:53.164Z,4.38
2022-10-04T20:59:54.772Z,4.28
2022-10-04T21:05:12.736Z,4.95
2022-10-04T21:10:19.958Z,4.60
2022-10-04T21:15:22.534Z,4.65
2022-10-04T21:20:44.498Z,4.82
2022-10-04T21:25:45.887Z,5.38
2022-10-04T21:30:47.240Z,6.97
2022-10-04T21:35:52.129Z,7.85
2022-10-04T21:40:53.489Z,9.07
2022-10-04T21:45:54.906Z,9.60
2022-10-04T21:50:56.413Z,9.13
2022-10-04T21:55:57.843Z,8.13
2022-10-04T22:00:59.315Z,6.13
2022-10-04T22:06:00.887Z,6.60
2022-10-04T22:11:02.309Z,6.05
2022-10-04T22:16:04.609Z,5.93
2022-10-04T22:21:06.519Z,6.25
2022-10-04T22:26:15.083Z,5.95
2022-10-04T22:31:19.588Z,8.15
2022-10-04T22:36:29.931Z,16.30
2022-10-04T22:41:34.322Z,10.00
2022-10-04T22:46:41.871Z,5.25
2022-10-04T22:51:44.903Z,5.13
2022-10-04T22:56:47.111Z,4.82
2022-10-04T23:01:48.716Z,4.13
2022-10-04T23:06:51.350Z,4.35
2022-10-04T23:11:52.709Z,4.40
2022-10-04T23:16:54.162Z,4.82
2022-10-04T23:21:55.533Z,5.20
2022-10-04T23:26:56.922Z,4.47
2022-10-04T23:31:58.406Z,4.95
2022-10-04T23:36:59.949Z,4.55
2022-10-04T23:42:07.445Z,4.18
2022-10-04T23:47:15.140Z,4.90
2022-10-04T23:52:25.163Z,5.38
2022-10-04T23:57:29.099Z,5.35
